Pagrindinis puslapis
METAR-TAF:

METAR-TAF

Oro uostai :

Ordu, Turkija

platuma: 40-58-00N, ilguma: 38-04-48E, Aukštis: 5 m

Dabartinis oras

Ataskaita buvo paskelbta 33 minutes, ne 17:50 UTC
Ramus vėjas
Temperatūra 20°C
Drėgmė 88%
Slėgis 1019 hPa
Matomumas 10 km arba daugiau
Su prošvaistėmis ne aukštis 3300 ft

METAR: LTCB 151750Z 00000KT 9999 BKN033 20/18 Q1019

Laikas: 21:23 (18:23 UTC)

Prognozė

Ataskaita buvo paskelbta 1 valandą ir 43 minutes, ne 16:40 UTC
Prognozė galioja nuo 15 metu 18 UTC su 16 metu 03 UTC
Vėjas 2 kt nuo kintamojo kryptimis
Matomumas 10 km arba daugiau
Su prošvaistėmis ne aukštis 3500 ft
Laikinai
nuo 15 metu 18 UTC su 15 metu 21 UTC
Išsisklaidę debesys ne aukštis 1000 ft
Mažai debesys ne aukštis 2000 ft, Liūtiniai kamuoliniai debesys.
Su prošvaistėmis ne aukštis 2800 ft
lietus

TAF: LTCB 151640Z 1518/1603 VRB02KT 9999 BKN035 TEMPO 1518/1521 -SHRA SCT010 FEW020CB BKN028

Orai ataskaitas ir orų prognozės (METAR, TAF).

turimą stotys yra geltonos ir raudonos taškus žemėlapyje.

Perkelti pele per norėdami pamatyti stoties vardą.

Tada spustelėkite, norėdami matyti oro stebėjimo ir prognozės.

Norėdami pakeisti žemėlapį: spustelėkite ant žalios mygtukų su juodo kryžiaus žemyn,; žalią mygtuką su brūkšneliu, jei norite nutolinti; arba žalių rodyklių gretimoms žemėlapius.


METAR-TAF: